sensor_id;sensor_type;location;lat;lon;timestamp;P1;durP1;ratioP1;P2;durP2;ratioP2
76380;SDS011;65202;52.520;10.528;2023-09-19T00:00:57;4.28;;;1.40;;
76380;SDS011;65202;52.520;10.528;2023-09-19T00:03:25;1.92;;;1.30;;
76380;SDS011;65202;52.520;10.528;2023-09-19T00:05:52;1.80;;;0.95;;
76380;SDS011;65202;52.520;10.528;2023-09-19T00:08:22;1.48;;;1.20;;
76380;SDS011;65202;52.520;10.528;2023-09-19T00:10:49;2.63;;;1.10;;
76380;SDS011;65202;52.520;10.528;2023-09-19T00:13:16;3.13;;;1.30;;
76380;SDS011;65202;52.520;10.528;2023-09-19T00:15:44;1.77;;;1.20;;
76380;SDS011;65202;52.520;10.528;2023-09-19T00:18:18;4.20;;;1.38;;
76380;SDS011;65202;52.520;10.528;2023-09-19T00:20:51;2.42;;;1.30;;
76380;SDS011;65202;52.520;10.528;2023-09-19T00:23:19;3.55;;;1.10;;
76380;SDS011;65202;52.520;10.528;2023-09-19T00:25:47;4.03;;;1.25;;
76380;SDS011;65202;52.520;10.528;2023-09-19T00:28:18;4.05;;;1.10;;
76380;SDS011;65202;52.520;10.528;2023-09-19T00:30:47;2.67;;;1.02;;
76380;SDS011;65202;52.520;10.528;2023-09-19T00:33:18;2.55;;;1.00;;
76380;SDS011;65202;52.520;10.528;2023-09-19T00:35:56;1.15;;;0.98;;
76380;SDS011;65202;52.520;10.528;2023-09-19T00:38:24;9.95;;;1.48;;
76380;SDS011;65202;52.520;10.528;2023-09-19T00:40:56;4.90;;;1.20;;
76380;SDS011;65202;52.520;10.528;2023-09-19T00:43:26;1.65;;;1.10;;
76380;SDS011;65202;52.520;10.528;2023-09-19T00:45:55;3.92;;;1.38;;
76380;SDS011;65202;52.520;10.528;2023-09-19T00:48:24;5.03;;;1.38;;
76380;SDS011;65202;52.520;10.528;2023-09-19T00:50:54;1.73;;;1.00;;
76380;SDS011;65202;52.520;10.528;2023-09-19T00:53:26;3.13;;;1.20;;
76380;SDS011;65202;52.520;10.528;2023-09-19T00:55:54;6.72;;;1.23;;
76380;SDS011;65202;52.520;10.528;2023-09-19T00:58:25;2.90;;;1.20;;
76380;SDS011;65202;52.520;10.528;2023-09-19T01:00:59;2.45;;;1.13;;
76380;SDS011;65202;52.520;10.528;2023-09-19T01:03:27;1.58;;;1.10;;
76380;SDS011;65202;52.520;10.528;2023-09-19T01:05:55;3.63;;;1.10;;
76380;SDS011;65202;52.520;10.528;2023-09-19T01:08:23;3.33;;;1.30;;
76380;SDS011;65202;52.520;10.528;2023-09-19T01:10:52;2.70;;;1.27;;
76380;SDS011;65202;52.520;10.528;2023-09-19T01:13:39;2.22;;;1.27;;
76380;SDS011;65202;52.520;10.528;2023-09-19T01:16:36;1.67;;;1.20;;
76380;SDS011;65202;52.520;10.528;2023-09-19T01:23:01;3.80;;;1.40;;
76380;SDS011;65202;52.520;10.528;2023-09-19T01:28:43;5.95;;;1.80;;
76380;SDS011;65202;52.520;10.528;2023-09-19T01:31:46;5.75;;;2.10;;
76380;SDS011;65202;52.520;10.528;2023-09-19T01:34:16;3.58;;;1.85;;
76380;SDS011;65202;52.520;10.528;2023-09-19T01:36:45;3.17;;;1.73;;
76380;SDS011;65202;52.520;10.528;2023-09-19T01:39:12;4.68;;;1.70;;
76380;SDS011;65202;52.520;10.528;2023-09-19T01:44:44;4.95;;;1.90;;
76380;SDS011;65202;52.520;10.528;2023-09-19T01:47:19;6.28;;;1.63;;
76380;SDS011;65202;52.520;10.528;2023-09-19T01:50:12;3.72;;;1.80;;
76380;SDS011;65202;52.520;10.528;2023-09-19T01:52:54;4.13;;;2.00;;
76380;SDS011;65202;52.520;10.528;2023-09-19T01:55:33;3.70;;;1.98;;
76380;SDS011;65202;52.520;10.528;2023-09-19T01:58:14;5.25;;;2.45;;
76380;SDS011;65202;52.520;10.528;2023-09-19T02:00:49;5.13;;;2.45;;
76380;SDS011;65202;52.520;10.528;2023-09-19T02:03:21;4.53;;;2.25;;
76380;SDS011;65202;52.520;10.528;2023-09-19T02:05:52;5.90;;;2.80;;
76380;SDS011;65202;52.520;10.528;2023-09-19T02:08:21;7.90;;;2.50;;
76380;SDS011;65202;52.520;10.528;2023-09-19T02:10:51;6.93;;;2.88;;
76380;SDS011;65202;52.520;10.528;2023-09-19T02:13:20;5.10;;;3.10;;
76380;SDS011;65202;52.520;10.528;2023-09-19T02:15:51;7.15;;;2.70;;
76380;SDS011;65202;52.520;10.528;2023-09-19T02:18:19;8.95;;;3.10;;
76380;SDS011;65202;52.520;10.528;2023-09-19T02:20:50;5.13;;;2.85;;
76380;SDS011;65202;52.520;10.528;2023-09-19T02:23:23;8.80;;;3.28;;
76380;SDS011;65202;52.520;10.528;2023-09-19T02:25:53;7.75;;;3.60;;
76380;SDS011;65202;52.520;10.528;2023-09-19T02:28:28;11.43;;;3.67;;
76380;SDS011;65202;52.520;10.528;2023-09-19T02:30:59;10.05;;;4.15;;
76380;SDS011;65202;52.520;10.528;2023-09-19T02:33:27;6.75;;;3.88;;
76380;SDS011;65202;52.520;10.528;2023-09-19T02:38:28;6.88;;;3.65;;
76380;SDS011;65202;52.520;10.528;2023-09-19T02:40:56;7.80;;;4.10;;
76380;SDS011;65202;52.520;10.528;2023-09-19T02:43:23;8.20;;;4.28;;
76380;SDS011;65202;52.520;10.528;2023-09-19T02:45:51;9.88;;;4.07;;
76380;SDS011;65202;52.520;10.528;2023-09-19T02:48:21;9.35;;;4.20;;
76380;SDS011;65202;52.520;10.528;2023-09-19T02:50:49;7.95;;;4.38;;
76380;SDS011;65202;52.520;10.528;2023-09-19T02:53:18;7.25;;;4.35;;
76380;SDS011;65202;52.520;10.528;2023-09-19T02:55:46;9.70;;;4.63;;
76380;SDS011;65202;52.520;10.528;2023-09-19T02:58:15;10.25;;;5.18;;
76380;SDS011;65202;52.520;10.528;2023-09-19T03:00:43;14.30;;;4.82;;
76380;SDS011;65202;52.520;10.528;2023-09-19T03:03:14;8.77;;;5.13;;
76380;SDS011;65202;52.520;10.528;2023-09-19T03:05:43;8.93;;;4.85;;
76380;SDS011;65202;52.520;10.528;2023-09-19T03:08:16;11.73;;;5.13;;
76380;SDS011;65202;52.520;10.528;2023-09-19T03:10:47;11.50;;;5.07;;
76380;SDS011;65202;52.520;10.528;2023-09-19T03:13:15;11.55;;;4.70;;
76380;SDS011;65202;52.520;10.528;2023-09-19T03:15:43;12.02;;;5.25;;
76380;SDS011;65202;52.520;10.528;2023-09-19T03:18:17;13.82;;;5.50;;
76380;SDS011;65202;52.520;10.528;2023-09-19T03:20:52;10.73;;;5.13;;
76380;SDS011;65202;52.520;10.528;2023-09-19T03:23:22;12.95;;;5.10;;
76380;SDS011;65202;52.520;10.528;2023-09-19T03:25:50;10.07;;;4.80;;
76380;SDS011;65202;52.520;10.528;2023-09-19T03:28:19;8.57;;;5.10;;
76380;SDS011;65202;52.520;10.528;2023-09-19T03:31:05;9.90;;;4.95;;
76380;SDS011;65202;52.520;10.528;2023-09-19T03:33:34;11.45;;;5.30;;
76380;SDS011;65202;52.520;10.528;2023-09-19T03:36:02;14.77;;;5.22;;
76380;SDS011;65202;52.520;10.528;2023-09-19T03:38:34;9.90;;;5.55;;
76380;SDS011;65202;52.520;10.528;2023-09-19T03:41:02;17.95;;;5.30;;
76380;SDS011;65202;52.520;10.528;2023-09-19T03:43:31;11.55;;;4.97;;
76380;SDS011;65202;52.520;10.528;2023-09-19T03:46:03;13.48;;;5.82;;
76380;SDS011;65202;52.520;10.528;2023-09-19T03:48:32;10.15;;;5.43;;
76380;SDS011;65202;52.520;10.528;2023-09-19T03:51:01;9.45;;;5.18;;
76380;SDS011;65202;52.520;10.528;2023-09-19T03:53:46;10.57;;;5.18;;
76380;SDS011;65202;52.520;10.528;2023-09-19T03:56:16;11.40;;;5.95;;
76380;SDS011;65202;52.520;10.528;2023-09-19T03:58:43;10.88;;;5.43;;
76380;SDS011;65202;52.520;10.528;2023-09-19T04:01:10;11.38;;;6.40;;
76380;SDS011;65202;52.520;10.528;2023-09-19T04:03:38;13.70;;;6.85;;
76380;SDS011;65202;52.520;10.528;2023-09-19T04:06:21;16.00;;;6.50;;
76380;SDS011;65202;52.520;10.528;2023-09-19T04:09:07;13.25;;;5.78;;
76380;SDS011;65202;52.520;10.528;2023-09-19T04:11:40;10.90;;;5.63;;
76380;SDS011;65202;52.520;10.528;2023-09-19T04:14:11;13.85;;;5.63;;
76380;SDS011;65202;52.520;10.528;2023-09-19T04:16:41;13.15;;;5.32;;
76380;SDS011;65202;52.520;10.528;2023-09-19T04:19:09;13.52;;;6.95;;
76380;SDS011;65202;52.520;10.528;2023-09-19T04:21:36;12.98;;;5.68;;
76380;SDS011;65202;52.520;10.528;2023-09-19T04:24:04;11.40;;;6.43;;
76380;SDS011;65202;52.520;10.528;2023-09-19T04:26:31;13.57;;;5.00;;
76380;SDS011;65202;52.520;10.528;2023-09-19T04:28:59;17.60;;;5.40;;
76380;SDS011;65202;52.520;10.528;2023-09-19T04:31:28;12.80;;;5.50;;
76380;SDS011;65202;52.520;10.528;2023-09-19T04:33:56;15.50;;;5.68;;
76380;SDS011;65202;52.520;10.528;2023-09-19T04:36:23;13.00;;;5.05;;
76380;SDS011;65202;52.520;10.528;2023-09-19T04:39:02;13.60;;;4.70;;
76380;SDS011;65202;52.520;10.528;2023-09-19T04:41:34;12.65;;;5.20;;
76380;SDS011;65202;52.520;10.528;2023-09-19T04:44:01;17.90;;;4.82;;
76380;SDS011;65202;52.520;10.528;2023-09-19T04:46:28;11.70;;;4.93;;
76380;SDS011;65202;52.520;10.528;2023-09-19T04:48:56;17.27;;;4.97;;
76380;SDS011;65202;52.520;10.528;2023-09-19T04:51:23;10.25;;;4.68;;
76380;SDS011;65202;52.520;10.528;2023-09-19T04:53:51;10.35;;;4.60;;
76380;SDS011;65202;52.520;10.528;2023-09-19T04:56:18;15.20;;;4.90;;
76380;SDS011;65202;52.520;10.528;2023-09-19T04:58:46;9.38;;;4.85;;
76380;SDS011;65202;52.520;10.528;2023-09-19T05:01:13;14.13;;;5.63;;
76380;SDS011;65202;52.520;10.528;2023-09-19T05:03:42;17.98;;;6.53;;
76380;SDS011;65202;52.520;10.528;2023-09-19T05:06:09;12.48;;;5.78;;
76380;SDS011;65202;52.520;10.528;2023-09-19T05:08:36;14.60;;;5.05;;
76380;SDS011;65202;52.520;10.528;2023-09-19T05:11:04;16.08;;;4.90;;
76380;SDS011;65202;52.520;10.528;2023-09-19T05:13:31;14.90;;;4.63;;
76380;SDS011;65202;52.520;10.528;2023-09-19T05:16:02;12.00;;;4.65;;
76380;SDS011;65202;52.520;10.528;2023-09-19T05:18:29;16.10;;;5.30;;
76380;SDS011;65202;52.520;10.528;2023-09-19T05:21:01;15.35;;;5.80;;
76380;SDS011;65202;52.520;10.528;2023-09-19T05:23:30;14.52;;;5.00;;
76380;SDS011;65202;52.520;10.528;2023-09-19T05:25:58;15.73;;;4.30;;
76380;SDS011;65202;52.520;10.528;2023-09-19T05:28:26;12.18;;;4.38;;
76380;SDS011;65202;52.520;10.528;2023-09-19T05:30:54;15.40;;;4.90;;
76380;SDS011;65202;52.520;10.528;2023-09-19T05:33:21;15.70;;;5.20;;
76380;SDS011;65202;52.520;10.528;2023-09-19T05:35:49;11.05;;;4.70;;
76380;SDS011;65202;52.520;10.528;2023-09-19T05:38:16;14.00;;;5.68;;
76380;SDS011;65202;52.520;10.528;2023-09-19T05:40:46;10.73;;;4.07;;
76380;SDS011;65202;52.520;10.528;2023-09-19T05:43:13;16.23;;;4.43;;
76380;SDS011;65202;52.520;10.528;2023-09-19T05:45:43;15.77;;;5.18;;
76380;SDS011;65202;52.520;10.528;2023-09-19T05:48:13;15.55;;;5.03;;
76380;SDS011;65202;52.520;10.528;2023-09-19T05:50:43;15.93;;;5.43;;
76380;SDS011;65202;52.520;10.528;2023-09-19T05:53:13;12.32;;;5.53;;
76380;SDS011;65202;52.520;10.528;2023-09-19T05:55:42;17.17;;;5.97;;
76380;SDS011;65202;52.520;10.528;2023-09-19T05:58:10;14.00;;;5.72;;
76380;SDS011;65202;52.520;10.528;2023-09-19T06:00:41;12.00;;;6.47;;
76380;SDS011;65202;52.520;10.528;2023-09-19T06:03:10;15.23;;;6.78;;
76380;SDS011;65202;52.520;10.528;2023-09-19T06:05:38;14.43;;;6.80;;
76380;SDS011;65202;52.520;10.528;2023-09-19T06:08:08;13.02;;;6.18;;
76380;SDS011;65202;52.520;10.528;2023-09-19T06:10:36;18.95;;;6.65;;
76380;SDS011;65202;52.520;10.528;2023-09-19T06:13:04;18.98;;;6.22;;
76380;SDS011;65202;52.520;10.528;2023-09-19T06:15:32;20.27;;;6.30;;
76380;SDS011;65202;52.520;10.528;2023-09-19T06:18:00;17.88;;;6.20;;
76380;SDS011;65202;52.520;10.528;2023-09-19T06:20:29;16.50;;;7.88;;
76380;SDS011;65202;52.520;10.528;2023-09-19T06:22:56;12.80;;;6.40;;
76380;SDS011;65202;52.520;10.528;2023-09-19T06:25:24;15.07;;;6.57;;
76380;SDS011;65202;52.520;10.528;2023-09-19T06:27:52;14.88;;;6.90;;
76380;SDS011;65202;52.520;10.528;2023-09-19T06:30:22;13.30;;;6.50;;
76380;SDS011;65202;52.520;10.528;2023-09-19T06:32:59;14.65;;;6.20;;
76380;SDS011;65202;52.520;10.528;2023-09-19T06:35:28;21.55;;;6.85;;
76380;SDS011;65202;52.520;10.528;2023-09-19T06:38:02;15.68;;;6.47;;
76380;SDS011;65202;52.520;10.528;2023-09-19T06:40:31;12.60;;;5.97;;
76380;SDS011;65202;52.520;10.528;2023-09-19T06:42:58;16.25;;;6.50;;
76380;SDS011;65202;52.520;10.528;2023-09-19T06:45:28;15.80;;;6.30;;
76380;SDS011;65202;52.520;10.528;2023-09-19T06:47:56;20.23;;;7.30;;
76380;SDS011;65202;52.520;10.528;2023-09-19T06:50:25;12.65;;;5.55;;
76380;SDS011;65202;52.520;10.528;2023-09-19T06:52:54;14.88;;;6.03;;
76380;SDS011;65202;52.520;10.528;2023-09-19T06:55:24;17.98;;;6.40;;
76380;SDS011;65202;52.520;10.528;2023-09-19T06:57:55;20.95;;;6.85;;
76380;SDS011;65202;52.520;10.528;2023-09-19T07:00:23;16.17;;;6.80;;
76380;SDS011;65202;52.520;10.528;2023-09-19T07:03:09;14.23;;;5.85;;
76380;SDS011;65202;52.520;10.528;2023-09-19T07:05:40;13.90;;;6.38;;
76380;SDS011;65202;52.520;10.528;2023-09-19T07:08:08;14.23;;;5.90;;
76380;SDS011;65202;52.520;10.528;2023-09-19T07:10:39;17.10;;;6.13;;
76380;SDS011;65202;52.520;10.528;2023-09-19T07:13:09;15.88;;;6.05;;
76380;SDS011;65202;52.520;10.528;2023-09-19T07:15:38;15.40;;;5.78;;
76380;SDS011;65202;52.520;10.528;2023-09-19T07:18:08;18.45;;;5.50;;
76380;SDS011;65202;52.520;10.528;2023-09-19T07:20:38;23.90;;;6.07;;
76380;SDS011;65202;52.520;10.528;2023-09-19T07:23:05;15.43;;;5.40;;
76380;SDS011;65202;52.520;10.528;2023-09-19T07:25:33;15.23;;;5.63;;
76380;SDS011;65202;52.520;10.528;2023-09-19T07:28:02;12.20;;;5.32;;
76380;SDS011;65202;52.520;10.528;2023-09-19T07:30:30;14.50;;;5.03;;
76380;SDS011;65202;52.520;10.528;2023-09-19T07:32:57;17.75;;;4.95;;
76380;SDS011;65202;52.520;10.528;2023-09-19T07:35:25;14.38;;;4.35;;
76380;SDS011;65202;52.520;10.528;2023-09-19T07:37:52;9.70;;;3.83;;
76380;SDS011;65202;52.520;10.528;2023-09-19T07:40:20;14.75;;;4.10;;
76380;SDS011;65202;52.520;10.528;2023-09-19T07:42:48;16.40;;;4.43;;
76380;SDS011;65202;52.520;10.528;2023-09-19T07:45:15;13.98;;;4.00;;
76380;SDS011;65202;52.520;10.528;2023-09-19T07:47:44;16.70;;;3.85;;
76380;SDS011;65202;52.520;10.528;2023-09-19T07:50:14;12.13;;;3.67;;
76380;SDS011;65202;52.520;10.528;2023-09-19T07:52:46;13.88;;;3.65;;
76380;SDS011;65202;52.520;10.528;2023-09-19T07:55:15;12.77;;;4.22;;
76380;SDS011;65202;52.520;10.528;2023-09-19T07:57:44;12.95;;;3.63;;
76380;SDS011;65202;52.520;10.528;2023-09-19T08:00:11;13.90;;;3.80;;
76380;SDS011;65202;52.520;10.528;2023-09-19T08:02:40;10.63;;;3.60;;
76380;SDS011;65202;52.520;10.528;2023-09-19T08:05:09;12.05;;;3.42;;
76380;SDS011;65202;52.520;10.528;2023-09-19T08:07:39;13.98;;;3.58;;
76380;SDS011;65202;52.520;10.528;2023-09-19T08:10:09;11.90;;;3.80;;
76380;SDS011;65202;52.520;10.528;2023-09-19T08:12:40;11.97;;;3.67;;
76380;SDS011;65202;52.520;10.528;2023-09-19T08:15:14;11.45;;;3.55;;
76380;SDS011;65202;52.520;10.528;2023-09-19T08:17:47;9.63;;;3.40;;
76380;SDS011;65202;52.520;10.528;2023-09-19T08:20:15;13.35;;;3.67;;
76380;SDS011;65202;52.520;10.528;2023-09-19T08:22:47;12.75;;;3.33;;
76380;SDS011;65202;52.520;10.528;2023-09-19T08:25:19;10.13;;;3.20;;
76380;SDS011;65202;52.520;10.528;2023-09-19T08:27:50;15.02;;;3.50;;
76380;SDS011;65202;52.520;10.528;2023-09-19T08:30:21;13.32;;;3.33;;
76380;SDS011;65202;52.520;10.528;2023-09-19T08:33:00;11.25;;;3.08;;
76380;SDS011;65202;52.520;10.528;2023-09-19T08:35:28;14.40;;;3.40;;
76380;SDS011;65202;52.520;10.528;2023-09-19T08:37:55;12.85;;;3.58;;
76380;SDS011;65202;52.520;10.528;2023-09-19T08:40:23;13.70;;;3.38;;
76380;SDS011;65202;52.520;10.528;2023-09-19T08:42:52;12.32;;;3.22;;
76380;SDS011;65202;52.520;10.528;2023-09-19T08:45:25;12.57;;;3.20;;
76380;SDS011;65202;52.520;10.528;2023-09-19T08:51:00;17.52;;;3.63;;
76380;SDS011;65202;52.520;10.528;2023-09-19T08:53:51;14.45;;;3.50;;
76380;SDS011;65202;52.520;10.528;2023-09-19T08:56:26;10.27;;;3.10;;
76380;SDS011;65202;52.520;10.528;2023-09-19T08:58:57;10.60;;;3.00;;
76380;SDS011;65202;52.520;10.528;2023-09-19T09:01:34;15.70;;;3.90;;
76380;SDS011;65202;52.520;10.528;2023-09-19T09:04:03;14.85;;;3.40;;
76380;SDS011;65202;52.520;10.528;2023-09-19T09:06:41;10.30;;;2.30;;
76380;SDS011;65202;52.520;10.528;2023-09-19T09:09:10;12.75;;;2.95;;
76380;SDS011;65202;52.520;10.528;2023-09-19T09:11:38;8.30;;;2.65;;
76380;SDS011;65202;52.520;10.528;2023-09-19T09:14:07;10.23;;;2.63;;
76380;SDS011;65202;52.520;10.528;2023-09-19T09:16:34;10.65;;;2.80;;
76380;SDS011;65202;52.520;10.528;2023-09-19T09:19:02;10.15;;;2.70;;
76380;SDS011;65202;52.520;10.528;2023-09-19T09:21:29;11.40;;;2.65;;
76380;SDS011;65202;52.520;10.528;2023-09-19T09:27:00;12.32;;;3.08;;
76380;SDS011;65202;52.520;10.528;2023-09-19T09:34:57;12.02;;;3.25;;
76380;SDS011;65202;52.520;10.528;2023-09-19T09:37:28;9.67;;;2.87;;
76380;SDS011;65202;52.520;10.528;2023-09-19T09:40:01;15.52;;;3.20;;
76380;SDS011;65202;52.520;10.528;2023-09-19T09:42:42;11.85;;;2.67;;
76380;SDS011;65202;52.520;10.528;2023-09-19T09:45:19;14.20;;;6.10;;
76380;SDS011;65202;52.520;10.528;2023-09-19T09:48:04;6.75;;;2.40;;
76380;SDS011;65202;52.520;10.528;2023-09-19T09:50:48;7.82;;;2.58;;
76380;SDS011;65202;52.520;10.528;2023-09-19T09:53:23;9.35;;;2.63;;
76380;SDS011;65202;52.520;10.528;2023-09-19T09:58:28;11.18;;;2.78;;
76380;SDS011;65202;52.520;10.528;2023-09-19T10:00:59;12.10;;;2.50;;
76380;SDS011;65202;52.520;10.528;2023-09-19T10:03:33;13.57;;;3.65;;
76380;SDS011;65202;52.520;10.528;2023-09-19T10:06:11;9.07;;;2.75;;
76380;SDS011;65202;52.520;10.528;2023-09-19T10:09:08;10.00;;;2.83;;
76380;SDS011;65202;52.520;10.528;2023-09-19T10:11:43;9.95;;;2.55;;
76380;SDS011;65202;52.520;10.528;2023-09-19T10:14:16;7.25;;;2.42;;
76380;SDS011;65202;52.520;10.528;2023-09-19T10:16:50;12.20;;;2.63;;
76380;SDS011;65202;52.520;10.528;2023-09-19T10:19:29;10.77;;;2.30;;
76380;SDS011;65202;52.520;10.528;2023-09-19T10:22:04;6.95;;;2.25;;
76380;SDS011;65202;52.520;10.528;2023-09-19T10:24:35;8.48;;;2.30;;
76380;SDS011;65202;52.520;10.528;2023-09-19T10:27:18;7.72;;;2.30;;
76380;SDS011;65202;52.520;10.528;2023-09-19T10:29:48;8.07;;;2.35;;
76380;SDS011;65202;52.520;10.528;2023-09-19T10:32:22;10.18;;;2.33;;
76380;SDS011;65202;52.520;10.528;2023-09-19T10:34:50;8.10;;;2.15;;
76380;SDS011;65202;52.520;10.528;2023-09-19T10:37:22;10.48;;;2.25;;
76380;SDS011;65202;52.520;10.528;2023-09-19T10:39:54;8.13;;;2.37;;
76380;SDS011;65202;52.520;10.528;2023-09-19T10:42:23;10.05;;;2.70;;
76380;SDS011;65202;52.520;10.528;2023-09-19T10:44:56;14.40;;;2.80;;
76380;SDS011;65202;52.520;10.528;2023-09-19T10:47:27;7.45;;;2.33;;
76380;SDS011;65202;52.520;10.528;2023-09-19T10:49:54;9.90;;;2.40;;
76380;SDS011;65202;52.520;10.528;2023-09-19T10:52:24;10.02;;;2.28;;
76380;SDS011;65202;52.520;10.528;2023-09-19T10:54:56;7.97;;;2.33;;
76380;SDS011;65202;52.520;10.528;2023-09-19T10:57:28;8.82;;;2.70;;
76380;SDS011;65202;52.520;10.528;2023-09-19T11:00:00;10.65;;;2.17;;
76380;SDS011;65202;52.520;10.528;2023-09-19T11:05:39;8.43;;;2.70;;
76380;SDS011;65202;52.520;10.528;2023-09-19T11:08:08;9.40;;;2.53;;
76380;SDS011;65202;52.520;10.528;2023-09-19T11:10:47;10.02;;;2.63;;
76380;SDS011;65202;52.520;10.528;2023-09-19T11:13:28;7.47;;;2.65;;
76380;SDS011;65202;52.520;10.528;2023-09-19T11:16:04;7.53;;;2.40;;
76380;SDS011;65202;52.520;10.528;2023-09-19T11:26:49;11.20;;;2.40;;
76380;SDS011;65202;52.520;10.528;2023-09-19T11:31:57;9.95;;;2.97;;
76380;SDS011;65202;52.520;10.528;2023-09-19T11:39:42;9.45;;;2.83;;
76380;SDS011;65202;52.520;10.528;2023-09-19T11:42:44;11.18;;;2.60;;
76380;SDS011;65202;52.520;10.528;2023-09-19T11:48:24;14.07;;;2.42;;
76380;SDS011;65202;52.520;10.528;2023-09-19T11:50:54;13.40;;;2.65;;
76380;SDS011;65202;52.520;10.528;2023-09-19T11:53:24;9.95;;;2.67;;
76380;SDS011;65202;52.520;10.528;2023-09-19T11:56:05;13.48;;;3.65;;
76380;SDS011;65202;52.520;10.528;2023-09-19T11:58:37;13.95;;;3.00;;
76380;SDS011;65202;52.520;10.528;2023-09-19T12:01:05;10.52;;;3.28;;
76380;SDS011;65202;52.520;10.528;2023-09-19T12:03:35;12.25;;;3.47;;
76380;SDS011;65202;52.520;10.528;2023-09-19T12:06:11;12.88;;;3.28;;
76380;SDS011;65202;52.520;10.528;2023-09-19T12:08:43;13.52;;;3.70;;
76380;SDS011;65202;52.520;10.528;2023-09-19T12:11:14;6.97;;;2.60;;
76380;SDS011;65202;52.520;10.528;2023-09-19T12:13:43;10.13;;;2.63;;
76380;SDS011;65202;52.520;10.528;2023-09-19T12:16:16;12.02;;;2.85;;
76380;SDS011;65202;52.520;10.528;2023-09-19T12:18:49;12.90;;;3.25;;
76380;SDS011;65202;52.520;10.528;2023-09-19T12:21:21;13.55;;;3.30;;
76380;SDS011;65202;52.520;10.528;2023-09-19T12:29:19;13.48;;;3.03;;
76380;SDS011;65202;52.520;10.528;2023-09-19T12:34:21;11.63;;;2.90;;
76380;SDS011;65202;52.520;10.528;2023-09-19T12:37:02;9.07;;;2.78;;
76380;SDS011;65202;52.520;10.528;2023-09-19T12:39:51;10.88;;;2.85;;
76380;SDS011;65202;52.520;10.528;2023-09-19T12:44:59;8.60;;;2.60;;
76380;SDS011;65202;52.520;10.528;2023-09-19T12:47:28;9.32;;;2.60;;
76380;SDS011;65202;52.520;10.528;2023-09-19T12:50:17;14.98;;;2.90;;
76380;SDS011;65202;52.520;10.528;2023-09-19T12:52:46;12.63;;;2.72;;
76380;SDS011;65202;52.520;10.528;2023-09-19T12:55:24;7.35;;;2.75;;
76380;SDS011;65202;52.520;10.528;2023-09-19T13:00:38;13.10;;;2.88;;
76380;SDS011;65202;52.520;10.528;2023-09-19T13:03:18;10.27;;;2.75;;
76380;SDS011;65202;52.520;10.528;2023-09-19T13:06:00;10.52;;;2.53;;
76380;SDS011;65202;52.520;10.528;2023-09-19T13:08:31;11.13;;;2.97;;
76380;SDS011;65202;52.520;10.528;2023-09-19T13:11:06;14.05;;;2.70;;
76380;SDS011;65202;52.520;10.528;2023-09-19T13:13:46;8.68;;;2.53;;
76380;SDS011;65202;52.520;10.528;2023-09-19T13:16:21;10.13;;;2.90;;
76380;SDS011;65202;52.520;10.528;2023-09-19T13:18:51;10.70;;;3.92;;
76380;SDS011;65202;52.520;10.528;2023-09-19T13:21:31;11.10;;;4.28;;
76380;SDS011;65202;52.520;10.528;2023-09-19T13:24:23;6.40;;;2.75;;
76380;SDS011;65202;52.520;10.528;2023-09-19T13:26:56;8.38;;;2.88;;
76380;SDS011;65202;52.520;10.528;2023-09-19T13:29:24;14.30;;;3.03;;
76380;SDS011;65202;52.520;10.528;2023-09-19T13:31:51;13.57;;;2.90;;
76380;SDS011;65202;52.520;10.528;2023-09-19T13:34:20;9.25;;;2.53;;
76380;SDS011;65202;52.520;10.528;2023-09-19T13:36:47;11.77;;;3.03;;
76380;SDS011;65202;52.520;10.528;2023-09-19T13:39:15;12.65;;;3.25;;
76380;SDS011;65202;52.520;10.528;2023-09-19T13:41:44;14.10;;;2.78;;
76380;SDS011;65202;52.520;10.528;2023-09-19T13:44:14;9.82;;;3.08;;
76380;SDS011;65202;52.520;10.528;2023-09-19T13:46:43;12.40;;;3.20;;
76380;SDS011;65202;52.520;10.528;2023-09-19T13:49:14;10.23;;;3.35;;
76380;SDS011;65202;52.520;10.528;2023-09-19T13:51:42;11.10;;;3.42;;
76380;SDS011;65202;52.520;10.528;2023-09-19T13:54:11;12.15;;;3.42;;
76380;SDS011;65202;52.520;10.528;2023-09-19T13:56:39;13.50;;;3.22;;
76380;SDS011;65202;52.520;10.528;2023-09-19T13:59:06;11.02;;;2.65;;
76380;SDS011;65202;52.520;10.528;2023-09-19T14:01:34;10.20;;;2.90;;
76380;SDS011;65202;52.520;10.528;2023-09-19T14:04:01;10.40;;;2.90;;
76380;SDS011;65202;52.520;10.528;2023-09-19T14:06:29;9.02;;;2.83;;
76380;SDS011;65202;52.520;10.528;2023-09-19T14:08:56;9.55;;;3.05;;
76380;SDS011;65202;52.520;10.528;2023-09-19T14:11:23;10.27;;;2.95;;
76380;SDS011;65202;52.520;10.528;2023-09-19T14:13:51;9.75;;;3.42;;
76380;SDS011;65202;52.520;10.528;2023-09-19T14:16:22;12.25;;;3.40;;
76380;SDS011;65202;52.520;10.528;2023-09-19T14:18:51;10.57;;;3.42;;
76380;SDS011;65202;52.520;10.528;2023-09-19T14:21:19;13.55;;;3.55;;
76380;SDS011;65202;52.520;10.528;2023-09-19T14:23:46;11.70;;;3.20;;
76380;SDS011;65202;52.520;10.528;2023-09-19T14:26:15;10.75;;;3.15;;
76380;SDS011;65202;52.520;10.528;2023-09-19T14:28:44;9.95;;;2.80;;
76380;SDS011;65202;52.520;10.528;2023-09-19T14:31:12;10.65;;;2.90;;
76380;SDS011;65202;52.520;10.528;2023-09-19T14:33:39;10.50;;;3.25;;
76380;SDS011;65202;52.520;10.528;2023-09-19T14:36:07;12.55;;;3.28;;
76380;SDS011;65202;52.520;10.528;2023-09-19T14:38:37;9.70;;;2.83;;
76380;SDS011;65202;52.520;10.528;2023-09-19T14:41:06;11.85;;;2.85;;
76380;SDS011;65202;52.520;10.528;2023-09-19T14:43:33;10.73;;;3.10;;
76380;SDS011;65202;52.520;10.528;2023-09-19T14:46:04;10.10;;;3.30;;
76380;SDS011;65202;52.520;10.528;2023-09-19T14:48:39;8.88;;;2.65;;
76380;SDS011;65202;52.520;10.528;2023-09-19T14:51:07;11.50;;;3.10;;
76380;SDS011;65202;52.520;10.528;2023-09-19T14:53:38;13.85;;;4.15;;
76380;SDS011;65202;52.520;10.528;2023-09-19T14:56:08;10.82;;;3.25;;
76380;SDS011;65202;52.520;10.528;2023-09-19T14:58:37;8.68;;;3.58;;
76380;SDS011;65202;52.520;10.528;2023-09-19T15:01:10;10.30;;;4.20;;
76380;SDS011;65202;52.520;10.528;2023-09-19T15:03:40;11.45;;;3.72;;
76380;SDS011;65202;52.520;10.528;2023-09-19T15:06:13;12.00;;;3.03;;
76380;SDS011;65202;52.520;10.528;2023-09-19T15:08:47;9.85;;;2.72;;
76380;SDS011;65202;52.520;10.528;2023-09-19T15:11:18;10.25;;;3.28;;
76380;SDS011;65202;52.520;10.528;2023-09-19T15:13:47;7.00;;;2.58;;
76380;SDS011;65202;52.520;10.528;2023-09-19T15:16:18;11.27;;;2.75;;
76380;SDS011;65202;52.520;10.528;2023-09-19T15:18:46;10.82;;;2.63;;
76380;SDS011;65202;52.520;10.528;2023-09-19T15:21:19;8.23;;;3.20;;
76380;SDS011;65202;52.520;10.528;2023-09-19T15:23:46;12.82;;;3.40;;
76380;SDS011;65202;52.520;10.528;2023-09-19T15:26:14;9.32;;;3.08;;
76380;SDS011;65202;52.520;10.528;2023-09-19T15:28:48;10.55;;;2.60;;
76380;SDS011;65202;52.520;10.528;2023-09-19T15:31:16;11.45;;;2.88;;
76380;SDS011;65202;52.520;10.528;2023-09-19T15:33:43;12.10;;;3.20;;
76380;SDS011;65202;52.520;10.528;2023-09-19T15:36:14;10.02;;;3.30;;
76380;SDS011;65202;52.520;10.528;2023-09-19T15:41:26;10.13;;;3.15;;
76380;SDS011;65202;52.520;10.528;2023-09-19T15:43:59;8.00;;;2.58;;
76380;SDS011;65202;52.520;10.528;2023-09-19T15:46:30;10.23;;;2.88;;
76380;SDS011;65202;52.520;10.528;2023-09-19T15:49:03;8.25;;;2.70;;
76380;SDS011;65202;52.520;10.528;2023-09-19T15:51:31;10.85;;;3.10;;
76380;SDS011;65202;52.520;10.528;2023-09-19T15:53:58;9.40;;;3.03;;